createdAt,value
2022-12-27T00:00:38.146Z,0
2022-12-27T00:01:37.452Z,0
2022-12-27T00:02:38.318Z,0
2022-12-27T00:03:37.608Z,0
2022-12-27T00:04:37.557Z,0
2022-12-27T00:05:37.803Z,0
2022-12-27T00:06:37.289Z,0
2022-12-27T00:07:37.787Z,0
2022-12-27T00:08:37.744Z,0
2022-12-27T00:09:37.461Z,0
2022-12-27T00:10:37.286Z,0
2022-12-27T00:11:37.673Z,0
2022-12-27T00:12:37.650Z,0
2022-12-27T00:13:37.138Z,0
2022-12-27T00:14:37.128Z,0
2022-12-27T00:15:37.380Z,0
2022-12-27T00:16:37.655Z,0
2022-12-27T00:17:37.302Z,0
2022-12-27T00:18:37.678Z,0
2022-12-27T00:19:37.550Z,0
2022-12-27T00:20:37.303Z,0
2022-12-27T00:21:37.528Z,0
2022-12-27T00:22:37.489Z,0
2022-12-27T00:23:37.489Z,0
2022-12-27T00:24:36.984Z,0
2022-12-27T00:25:36.917Z,0
2022-12-27T00:26:37.422Z,0
2022-12-27T00:27:37.133Z,0
2022-12-27T00:28:37.113Z,0
2022-12-27T00:29:36.887Z,0
2022-12-27T00:30:37.095Z,0
2022-12-27T00:31:37.752Z,0
2022-12-27T00:32:37.317Z,0
2022-12-27T00:33:37.024Z,0
2022-12-27T00:34:37.444Z,0
2022-12-27T00:35:37.237Z,0
2022-12-27T00:36:37.710Z,0
2022-12-27T00:37:37.432Z,0
2022-12-27T00:38:37.412Z,0
2022-12-27T00:39:37.152Z,0
2022-12-27T00:40:36.916Z,0
2022-12-27T00:41:37.367Z,0
2022-12-27T00:42:37.610Z,0
2022-12-27T00:43:37.079Z,0
2022-12-27T00:44:37.345Z,0
2022-12-27T00:45:37.853Z,0
2022-12-27T00:46:37.022Z,0
2022-12-27T00:47:37.410Z,0
2022-12-27T00:48:36.969Z,0
2022-12-27T00:49:37.237Z,0
2022-12-27T00:50:37.724Z,0
2022-12-27T00:51:37.457Z,0
2022-12-27T00:52:37.188Z,0
2022-12-27T00:53:36.925Z,0
2022-12-27T00:54:37.147Z,0
2022-12-27T00:55:37.403Z,0
2022-12-27T00:56:36.859Z,0
2022-12-27T00:57:37.113Z,0
2022-12-27T00:58:42.849Z,0
2022-12-27T00:59:37.053Z,0
2022-12-27T01:00:36.755Z,0
2022-12-27T01:01:37.971Z,0
2022-12-27T01:02:36.468Z,0
2022-12-27T01:03:36.936Z,0
2022-12-27T01:04:37.227Z,0
2022-12-27T01:05:36.935Z,0
2022-12-27T01:06:37.317Z,0
2022-12-27T01:07:36.671Z,0
2022-12-27T01:08:36.919Z,0
2022-12-27T01:09:36.850Z,0
2022-12-27T01:10:36.834Z,0
2022-12-27T01:11:36.825Z,0
2022-12-27T01:12:36.797Z,0
2022-12-27T01:13:36.540Z,0
2022-12-27T01:14:37.019Z,0
2022-12-27T01:15:36.755Z,0
2022-12-27T01:16:37.222Z,0
2022-12-27T01:17:36.981Z,0
2022-12-27T01:18:36.437Z,0
2022-12-27T01:19:36.950Z,0
2022-12-27T01:20:36.916Z,0
2022-12-27T01:21:36.449Z,0
2022-12-27T01:22:37.084Z,0
2022-12-27T01:23:36.332Z,0
2022-12-27T01:24:36.340Z,0
2022-12-27T01:25:36.319Z,0
2022-12-27T01:26:36.548Z,0
2022-12-27T01:27:36.260Z,0
2022-12-27T01:28:36.697Z,0
2022-12-27T01:29:36.759Z,0
2022-12-27T01:30:36.478Z,0
2022-12-27T01:31:36.833Z,0
2022-12-27T01:32:36.440Z,0
2022-12-27T01:33:36.427Z,0
2022-12-27T01:35:08.206Z,0
2022-12-27T01:35:36.372Z,0
2022-12-27T01:36:35.868Z,0
2022-12-27T01:37:36.688Z,0
2022-12-27T01:38:36.699Z,0
2022-12-27T01:39:36.039Z,0
2022-12-27T01:40:36.303Z,0
2022-12-27T01:41:35.999Z,0
2022-12-27T01:42:35.991Z,0
2022-12-27T01:43:36.205Z,0
2022-12-27T01:44:36.464Z,0
2022-12-27T01:45:36.366Z,0
2022-12-27T01:46:36.410Z,0
2022-12-27T01:47:36.415Z,0
2022-12-27T01:48:35.377Z,0
2022-12-27T01:49:36.118Z,0
2022-12-27T01:50:36.093Z,0
2022-12-27T01:51:35.813Z,0
2022-12-27T01:52:39.823Z,0
2022-12-27T01:53:35.777Z,0
2022-12-27T01:54:36.405Z,0
2022-12-27T01:55:36.013Z,0
2022-12-27T01:56:35.983Z,0
2022-12-27T01:57:35.956Z,0
2022-12-27T01:58:35.952Z,0
2022-12-27T01:59:36.190Z,0
2022-12-27T02:00:35.687Z,0
2022-12-27T02:01:36.704Z,0
2022-12-27T02:02:36.776Z,0
2022-12-27T02:03:35.570Z,0
2022-12-27T02:04:35.577Z,0
2022-12-27T02:05:35.846Z,0
2022-12-27T02:06:35.563Z,0
2022-12-27T02:07:35.766Z,0
2022-12-27T02:08:35.998Z,0
2022-12-27T02:09:35.780Z,0
2022-12-27T02:10:36.216Z,0
2022-12-27T02:11:35.682Z,0
2022-12-27T02:12:35.699Z,0
2022-12-27T02:13:35.916Z,0
2022-12-27T02:14:37.855Z,0
2022-12-27T02:15:35.126Z,0
2022-12-27T02:16:36.129Z,0
2022-12-27T02:17:35.607Z,0
2022-12-27T02:18:35.569Z,0
2022-12-27T02:19:35.288Z,0
2022-12-27T02:20:35.500Z,0
2022-12-27T02:21:35.238Z,0
2022-12-27T02:22:34.959Z,0
2022-12-27T02:23:42.668Z,0
2022-12-27T02:24:35.417Z,0
2022-12-27T02:25:35.801Z,0
2022-12-27T02:26:35.797Z,0
2022-12-27T02:27:35.113Z,0
2022-12-27T02:28:35.141Z,0
2022-12-27T02:29:35.351Z,0
2022-12-27T02:30:35.531Z,0
2022-12-27T02:31:35.069Z,0
2022-12-27T02:32:35.558Z,0
2022-12-27T02:33:35.291Z,0
2022-12-27T02:34:35.262Z,0
2022-12-27T02:35:35.510Z,0
2022-12-27T02:36:35.208Z,0
2022-12-27T02:37:35.456Z,0
2022-12-27T02:38:35.184Z,0
2022-12-27T02:39:35.176Z,0
2022-12-27T02:40:35.372Z,0
2022-12-27T02:41:34.849Z,0
2022-12-27T02:42:35.523Z,0
2022-12-27T02:43:35.130Z,0
2022-12-27T02:44:35.101Z,0
2022-12-27T02:45:35.294Z,0
2022-12-27T02:46:35.619Z,0
2022-12-27T02:47:35.247Z,0
2022-12-27T02:48:34.972Z,0
2022-12-27T02:49:35.202Z,0
2022-12-27T02:50:34.956Z,0
2022-12-27T02:51:34.725Z,0
2022-12-27T02:52:34.638Z,0
2022-12-27T02:53:35.187Z,0
2022-12-27T02:54:34.618Z,0
2022-12-27T02:55:35.119Z,0
2022-12-27T02:56:34.822Z,0
2022-12-27T02:57:34.802Z,0
2022-12-27T02:58:35.244Z,0
2022-12-27T02:59:35.118Z,0
2022-12-27T03:00:34.523Z,0
2022-12-27T03:01:35.761Z,0
2022-12-27T03:02:35.605Z,0
2022-12-27T03:03:36.327Z,0
2022-12-27T03:04:34.171Z,0
2022-12-27T03:05:34.407Z,0
2022-12-27T03:06:34.375Z,0
2022-12-27T03:07:34.609Z,0
2022-12-27T03:08:34.842Z,0
2022-12-27T03:09:34.297Z,0
2022-12-27T03:10:34.550Z,0
2022-12-27T03:11:34.779Z,0
2022-12-27T03:12:34.772Z,0
2022-12-27T03:13:34.741Z,0
2022-12-27T03:14:34.898Z,0
2022-12-27T03:15:40.454Z,0
2022-12-27T03:16:34.476Z,0
2022-12-27T03:17:34.157Z,0
2022-12-27T03:18:34.142Z,0
2022-12-27T03:19:34.655Z,0
2022-12-27T03:20:34.607Z,0
2022-12-27T03:21:34.104Z,0
2022-12-27T03:22:34.564Z,0
2022-12-27T03:23:34.537Z,0
2022-12-27T03:24:34.290Z,0
2022-12-27T03:25:34.239Z,0
2022-12-27T03:26:34.271Z,0
2022-12-27T03:27:34.206Z,0
2022-12-27T03:28:34.189Z,0
2022-12-27T03:29:34.171Z,0
2022-12-27T03:30:34.705Z,0
2022-12-27T03:31:34.397Z,0
2022-12-27T03:32:34.371Z,0
2022-12-27T03:49:42.422Z,0
2022-12-27T03:50:41.671Z,0
2022-12-27T03:51:42.136Z,0
2022-12-27T03:52:41.357Z,0
2022-12-27T03:53:41.316Z,0
2022-12-27T03:54:41.578Z,0
2022-12-27T03:55:43.327Z,0
2022-12-27T03:56:41.502Z,0
2022-12-27T03:57:41.477Z,0
2022-12-27T03:58:41.739Z,0
2022-12-27T03:59:41.465Z,0
2022-12-27T04:00:41.172Z,0
2022-12-27T04:01:42.083Z,0
2022-12-27T04:02:42.367Z,0
2022-12-27T04:03:41.923Z,0
2022-12-27T04:04:41.359Z,0
2022-12-27T04:05:41.750Z,0
2022-12-27T04:06:40.847Z,0
2022-12-27T04:07:41.287Z,0
2022-12-27T04:08:41.034Z,0
2022-12-27T04:09:40.996Z,0
2022-12-27T04:10:40.980Z,0
2022-12-27T04:11:41.474Z,0
2022-12-27T04:12:40.951Z,0
2022-12-27T04:13:40.938Z,0
2022-12-27T04:14:41.140Z,0
2022-12-27T04:15:40.802Z,0
2022-12-27T04:16:41.140Z,0
2022-12-27T04:17:41.411Z,0
2022-12-27T04:18:40.803Z,0
2022-12-27T04:19:41.040Z,0
2022-12-27T04:20:41.085Z,0
2022-12-27T04:21:41.404Z,0
2022-12-27T04:22:41.261Z,0
2022-12-27T04:23:41.012Z,0
2022-12-27T04:24:40.448Z,0
2022-12-27T04:25:40.923Z,0
2022-12-27T04:26:40.457Z,0
2022-12-27T04:27:40.885Z,0
2022-12-27T04:28:40.597Z,0
2022-12-27T04:29:40.840Z,0
2022-12-27T04:30:40.809Z,0
2022-12-27T04:31:41.459Z,0
2022-12-27T04:32:40.778Z,0
2022-12-27T04:33:40.518Z,0
2022-12-27T04:34:40.779Z,0
2022-12-27T04:35:40.727Z,0
2022-12-27T04:36:40.703Z,0
2022-12-27T04:37:41.202Z,0
2022-12-27T04:38:40.676Z,0
2022-12-27T04:39:40.391Z,0
2022-12-27T04:40:40.871Z,0
2022-12-27T04:41:40.596Z,0
2022-12-27T04:42:40.584Z,0
2022-12-27T04:43:40.805Z,0
2022-12-27T04:44:40.820Z,0
2022-12-27T04:45:40.853Z,0
2022-12-27T04:46:40.514Z,0
2022-12-27T04:47:40.282Z,0
2022-12-27T04:48:40.621Z,0
2022-12-27T04:49:40.582Z,0
2022-12-27T04:50:40.833Z,0
2022-12-27T04:51:40.296Z,0
2022-12-27T04:52:40.846Z,0
2022-12-27T04:53:40.991Z,0
2022-12-27T04:54:40.796Z,0
2022-12-27T04:55:40.269Z,0
2022-12-27T04:56:40.478Z,0
2022-12-27T04:57:40.189Z,0
2022-12-27T04:58:39.902Z,0
2022-12-27T04:59:40.410Z,0
2022-12-27T05:00:40.655Z,0
2022-12-27T05:01:41.382Z,0
2022-12-27T05:02:41.463Z,0
2022-12-27T05:03:40.709Z,0
2022-12-27T05:04:40.048Z,0
2022-12-27T05:05:39.773Z,0
2022-12-27T05:06:40.005Z,0
2022-12-27T05:07:40.286Z,0
2022-12-27T05:08:40.467Z,0
2022-12-27T05:09:40.582Z,0
2022-12-27T05:10:40.167Z,0
2022-12-27T05:11:39.944Z,0
2022-12-27T05:12:40.105Z,0
2022-12-27T05:13:40.120Z,0
2022-12-27T05:14:39.833Z,0
2022-12-27T05:15:40.391Z,0
2022-12-27T05:16:40.399Z,0
2022-12-27T05:17:40.085Z,0
2022-12-27T05:18:39.762Z,0
2022-12-27T05:19:40.235Z,0
2022-12-27T05:20:40.221Z,0
2022-12-27T05:21:39.949Z,0
2022-12-27T05:22:40.209Z,0
2022-12-27T05:23:39.992Z,0
2022-12-27T05:24:39.895Z,0
2022-12-27T05:25:40.318Z,0
2022-12-27T05:26:39.625Z,0
2022-12-27T05:27:39.835Z,0
2022-12-27T05:28:39.788Z,0
2022-12-27T05:29:39.776Z,0
2022-12-27T05:30:39.762Z,0
2022-12-27T05:31:40.140Z,0
2022-12-27T05:32:39.977Z,0
2022-12-27T05:33:39.955Z,0
2022-12-27T05:34:39.694Z,0
2022-12-27T05:35:39.697Z,0
2022-12-27T05:36:39.673Z,0
2022-12-27T05:37:39.639Z,0
2022-12-27T05:38:39.367Z,0
2022-12-27T05:39:39.378Z,0
2022-12-27T05:40:39.599Z,0
2022-12-27T05:41:39.937Z,0
2022-12-27T05:42:39.820Z,0
2022-12-27T05:43:39.787Z,0
2022-12-27T05:44:39.777Z,0
2022-12-27T05:45:39.545Z,0
2022-12-27T05:46:40.082Z,0
2022-12-27T05:47:39.162Z,0
2022-12-27T05:48:39.214Z,0
2022-12-27T05:49:39.378Z,0
2022-12-27T05:50:39.089Z,0
2022-12-27T05:51:39.383Z,0
2022-12-27T05:52:46.182Z,0
2022-12-27T05:53:39.309Z,0
2022-12-27T05:54:39.548Z,0
2022-12-27T05:55:39.521Z,0
2022-12-27T05:56:39.001Z,0
2022-12-27T05:57:39.607Z,0
2022-12-27T05:58:39.231Z,0
2022-12-27T05:59:39.232Z,0
2022-12-27T06:00:39.190Z,0
2022-12-27T06:01:40.107Z,0
2022-12-27T06:02:40.453Z,0
2022-12-27T06:03:39.733Z,0
2022-12-27T06:04:38.877Z,0
2022-12-27T06:05:39.088Z,0
2022-12-27T06:06:39.058Z,0
2022-12-27T06:07:39.059Z,0
2022-12-27T06:08:39.009Z,0
2022-12-27T06:09:39.243Z,0
2022-12-27T06:10:38.731Z,0
2022-12-27T06:11:38.728Z,0
2022-12-27T06:12:39.215Z,0
2022-12-27T06:13:39.422Z,0
2022-12-27T06:14:38.889Z,0
2022-12-27T06:15:39.288Z,0
2022-12-27T06:16:39.619Z,0
2022-12-27T06:17:39.251Z,0
2022-12-27T06:18:39.008Z,0
2022-12-27T06:19:38.981Z,0
2022-12-27T06:20:39.161Z,0
2022-12-27T06:21:38.656Z,0
2022-12-27T06:22:38.868Z,0
2022-12-27T06:23:38.860Z,0
2022-12-27T06:24:39.112Z,0
2022-12-27T06:25:39.079Z,0
2022-12-27T06:26:39.056Z,0
2022-12-27T06:27:38.263Z,0
2022-12-27T06:28:38.769Z,0
2022-12-27T06:29:39.243Z,0
2022-12-27T06:30:45.328Z,0
2022-12-27T06:31:39.254Z,0
2022-12-27T06:32:38.447Z,0
2022-12-27T06:33:38.645Z,0
2022-12-27T06:34:38.613Z,0
2022-12-27T06:35:38.351Z,0
2022-12-27T06:36:38.348Z,0
2022-12-27T06:37:38.847Z,0
2022-12-27T06:38:38.849Z,0
2022-12-27T06:39:38.028Z,0
2022-12-27T06:40:38.537Z,0
2022-12-27T06:41:38.497Z,0
2022-12-27T06:42:38.248Z,0
2022-12-27T06:43:38.249Z,0
2022-12-27T06:44:38.203Z,0
2022-12-27T06:45:39.143Z,0
2022-12-27T06:46:38.282Z,0
2022-12-27T06:47:38.617Z,0
2022-12-27T06:48:37.853Z,0
2022-12-27T06:49:38.584Z,0
2022-12-27T06:50:38.330Z,0
2022-12-27T06:51:38.575Z,0
2022-12-27T06:52:38.313Z,0
2022-12-27T06:53:38.264Z,0
2022-12-27T06:54:37.482Z,0
2022-12-27T06:55:38.470Z,0
2022-12-27T06:56:38.191Z,0
2022-12-27T06:57:38.184Z,0
2022-12-27T06:58:38.428Z,0
2022-12-27T06:59:37.930Z,0
2022-12-27T07:00:37.900Z,0
2022-12-27T07:01:39.201Z,0
2022-12-27T07:02:38.956Z,0
2022-12-27T07:03:37.800Z,0
2022-12-27T07:04:38.058Z,0
2022-12-27T07:05:38.076Z,0
2022-12-27T07:06:38.244Z,0
2022-12-27T07:07:38.219Z,0
2022-12-27T07:08:37.690Z,0
2022-12-27T07:09:37.744Z,5
2022-12-27T07:10:37.984Z,5
2022-12-27T07:11:37.743Z,5
2022-12-27T07:12:44.335Z,5
2022-12-27T07:13:38.122Z,5
2022-12-27T07:14:37.846Z,5
2022-12-27T07:15:38.080Z,5
2022-12-27T07:16:38.202Z,5
2022-12-27T07:17:38.161Z,5
2022-12-27T07:18:37.252Z,10
2022-12-27T07:19:37.750Z,10
2022-12-27T07:20:37.472Z,10
2022-12-27T07:21:37.709Z,10
2022-12-27T07:22:38.038Z,10
2022-12-27T07:23:37.401Z,10
2022-12-27T07:24:37.643Z,10
2022-12-27T07:25:37.616Z,10
2022-12-27T07:26:37.589Z,10
2022-12-27T07:27:37.582Z,10
2022-12-27T07:28:37.604Z,10
2022-12-27T07:29:45.637Z,15
2022-12-27T07:30:37.500Z,15
2022-12-27T07:31:38.127Z,15
2022-12-27T07:32:37.519Z,15
2022-12-27T07:33:37.861Z,15
2022-12-27T07:34:38.205Z,15
2022-12-27T07:35:40.865Z,15
2022-12-27T07:36:37.188Z,15
2022-12-27T07:37:36.900Z,20
2022-12-27T07:38:37.651Z,25
2022-12-27T07:39:37.350Z,15
2022-12-27T07:40:37.691Z,20
2022-12-27T07:41:37.074Z,25
2022-12-27T07:42:37.284Z,25
2022-12-27T07:43:37.280Z,25
2022-12-27T07:44:37.028Z,30
2022-12-27T07:45:37.811Z,30
2022-12-27T07:46:37.210Z,30
2022-12-27T07:47:37.205Z,30
2022-12-27T07:48:36.925Z,35
2022-12-27T07:49:37.532Z,30
2022-12-27T07:50:36.803Z,25
2022-12-27T07:51:37.363Z,35
2022-12-27T07:52:37.358Z,35
2022-12-27T07:53:36.862Z,30
2022-12-27T07:54:37.078Z,25
2022-12-27T07:55:37.016Z,35
2022-12-27T07:56:37.278Z,25
2022-12-27T07:57:37.248Z,25
2022-12-27T07:58:36.968Z,40
2022-12-27T07:59:36.764Z,35
2022-12-27T08:00:37.372Z,30
2022-12-27T08:01:37.996Z,30
2022-12-27T08:02:36.855Z,30
2022-12-27T08:03:36.412Z,25
2022-12-27T08:04:37.144Z,30
2022-12-27T08:05:37.897Z,35
2022-12-27T08:06:36.814Z,40
2022-12-27T08:07:36.786Z,35
2022-12-27T08:08:36.521Z,25
2022-12-27T08:09:36.761Z,25
2022-12-27T08:10:36.731Z,30
2022-12-27T08:11:36.464Z,35
2022-12-27T08:12:36.444Z,45
2022-12-27T08:13:36.685Z,35
2022-12-27T08:14:36.934Z,40
2022-12-27T08:15:36.380Z,25
2022-12-27T08:16:36.979Z,30
2022-12-27T08:17:36.674Z,25
2022-12-27T08:18:36.340Z,30
2022-12-27T08:19:36.882Z,35
2022-12-27T08:20:36.537Z,45
2022-12-27T08:21:37.113Z,30
2022-12-27T08:22:36.311Z,30
2022-12-27T08:23:36.741Z,25
2022-12-27T08:24:36.474Z,20
2022-12-27T08:25:35.948Z,15
2022-12-27T08:26:36.439Z,30
2022-12-27T08:27:36.423Z,40
2022-12-27T08:28:36.146Z,45
2022-12-27T08:29:36.964Z,35
2022-12-27T08:30:36.672Z,45
2022-12-27T08:31:36.333Z,45
2022-12-27T08:32:36.581Z,45
2022-12-27T08:33:36.547Z,45
2022-12-27T08:34:36.531Z,30
2022-12-27T08:36:04.703Z,30
2022-12-27T08:37:06.315Z,40
2022-12-27T08:37:36.038Z,35
2022-12-27T08:38:36.197Z,40
2022-12-27T08:39:35.972Z,40
2022-12-27T08:40:36.008Z,30
2022-12-27T08:41:36.185Z,30
2022-12-27T08:42:36.129Z,30
2022-12-27T08:43:36.105Z,30
2022-12-27T08:44:36.345Z,35
2022-12-27T08:45:36.108Z,30
2022-12-27T08:46:36.559Z,35
2022-12-27T08:47:36.036Z,50
2022-12-27T08:48:36.340Z,50
2022-12-27T08:49:35.781Z,45
2022-12-27T08:50:35.996Z,40
2022-12-27T08:51:48.384Z,45
2022-12-27T08:52:36.323Z,50
2022-12-27T08:53:35.964Z,40
2022-12-27T08:54:35.931Z,35
2022-12-27T08:55:35.886Z,40
2022-12-27T08:56:36.149Z,55
2022-12-27T08:57:35.343Z,50
2022-12-27T08:58:35.843Z,45
2022-12-27T08:59:35.839Z,45
2022-12-27T09:00:36.090Z,60
2022-12-27T09:01:36.646Z,60
2022-12-27T09:02:36.217Z,60
2022-12-27T09:03:36.100Z,60
2022-12-27T09:04:35.498Z,55
2022-12-27T09:05:42.338Z,65
2022-12-27T09:06:35.459Z,55
2022-12-27T09:07:35.918Z,70
2022-12-27T09:08:35.754Z,65
2022-12-27T09:09:35.392Z,60
2022-12-27T09:10:35.350Z,75
2022-12-27T09:11:35.399Z,75
2022-12-27T09:12:35.559Z,60
2022-12-27T09:13:35.319Z,65
2022-12-27T09:14:35.998Z,60
2022-12-27T09:15:35.787Z,65
2022-12-27T09:16:35.260Z,65
2022-12-27T09:17:34.971Z,60
2022-12-27T09:18:35.721Z,60
2022-12-27T09:19:35.455Z,85
2022-12-27T09:20:35.175Z,75
2022-12-27T09:21:35.683Z,80
2022-12-27T09:22:35.134Z,70
2022-12-27T09:23:35.634Z,65
2022-12-27T09:24:35.844Z,65
2022-12-27T09:25:35.906Z,70
2022-12-27T09:26:35.351Z,75
2022-12-27T09:27:35.031Z,75
2022-12-27T09:28:35.067Z,75
2022-12-27T09:29:34.998Z,80
2022-12-27T09:30:35.028Z,65
2022-12-27T09:31:35.497Z,55
2022-12-27T09:32:34.959Z,65
2022-12-27T09:33:35.176Z,70
2022-12-27T09:34:34.923Z,65
2022-12-27T09:35:41.204Z,55
2022-12-27T09:36:35.124Z,65
2022-12-27T09:37:35.394Z,65
2022-12-27T09:38:34.839Z,60
2022-12-27T09:39:34.821Z,50
2022-12-27T09:40:35.459Z,55
2022-12-27T09:43:27.756Z,65
2022-12-27T09:43:37.180Z,70
2022-12-27T09:44:37.188Z,70
2022-12-27T09:45:37.410Z,65
2022-12-27T09:46:37.110Z,70
2022-12-27T09:47:37.383Z,65
2022-12-27T09:48:42.392Z,70
2022-12-27T09:49:37.343Z,75
2022-12-27T09:50:37.583Z,75
2022-12-27T09:51:37.318Z,75
2022-12-27T09:52:37.070Z,90
2022-12-27T09:53:37.278Z,80
2022-12-27T09:54:37.266Z,85
2022-12-27T09:55:37.549Z,70
2022-12-27T09:57:26.740Z,65
2022-12-27T09:58:36.917Z,70
2022-12-27T09:59:37.190Z,65
2022-12-27T10:00:52.865Z,60
2022-12-27T10:01:37.670Z,60
2022-12-27T10:02:37.956Z,60
2022-12-27T10:03:37.076Z,60
2022-12-27T10:05:28.544Z,70
2022-12-27T10:06:38.672Z,70
2022-12-27T10:07:38.401Z,70
2022-12-27T10:08:38.640Z,70
2022-12-27T10:09:38.374Z,75
2022-12-27T10:10:38.385Z,65
2022-12-27T10:11:38.779Z,65
2022-12-27T10:12:41.623Z,65
2022-12-27T10:13:38.591Z,70
2022-12-27T10:14:38.297Z,70
2022-12-27T10:15:38.150Z,70
2022-12-27T10:16:38.154Z,75
2022-12-27T10:17:38.451Z,70
2022-12-27T10:18:38.201Z,75
2022-12-27T10:19:37.970Z,65
2022-12-27T10:20:38.436Z,75
2022-12-27T10:21:38.170Z,70
2022-12-27T10:22:38.432Z,70
2022-12-27T10:23:38.114Z,70
2022-12-27T10:24:38.142Z,70
2022-12-27T10:25:38.068Z,70
2022-12-27T10:26:37.791Z,70
2022-12-27T10:27:38.466Z,70
2022-12-27T10:28:38.348Z,85
2022-12-27T10:29:38.264Z,75
2022-12-27T10:30:38.003Z,75
2022-12-27T10:31:38.275Z,75
2022-12-27T10:32:38.194Z,75
2022-12-27T10:33:37.952Z,90
2022-12-27T10:34:38.185Z,85
2022-12-27T10:35:38.115Z,95
2022-12-27T10:36:37.863Z,95
2022-12-27T10:37:37.886Z,75
2022-12-27T10:38:37.823Z,80
2022-12-27T10:39:37.537Z,90
2022-12-27T10:40:43.341Z,85
2022-12-27T10:41:37.511Z,115
2022-12-27T10:42:38.007Z,125
2022-12-27T10:43:37.825Z,120
2022-12-27T10:44:37.998Z,115
2022-12-27T10:45:38.033Z,130
2022-12-27T10:46:42.730Z,155
2022-12-27T10:47:37.664Z,140
2022-12-27T10:49:27.302Z,105
2022-12-27T10:50:37.864Z,110
2022-12-27T10:51:37.611Z,100
2022-12-27T10:52:37.852Z,130
2022-12-27T10:53:37.830Z,115
2022-12-27T10:54:37.849Z,105
2022-12-27T10:55:37.249Z,140
2022-12-27T10:56:37.771Z,130
2022-12-27T10:57:37.778Z,130
2022-12-27T10:58:37.295Z,155
2022-12-27T10:59:37.526Z,110
2022-12-27T11:00:38.053Z,125
2022-12-27T11:01:38.592Z,140
2022-12-27T11:02:37.951Z,115
2022-12-27T11:03:37.382Z,105
2022-12-27T11:04:37.424Z,115
2022-12-27T11:05:37.107Z,105
2022-12-27T11:06:37.579Z,95
2022-12-27T11:07:37.341Z,105
2022-12-27T11:08:37.269Z,100
2022-12-27T11:09:37.334Z,85
2022-12-27T11:10:36.721Z,95
2022-12-27T11:11:36.994Z,95
2022-12-27T11:12:36.975Z,95
2022-12-27T11:13:36.672Z,80
2022-12-27T11:14:37.178Z,85
2022-12-27T11:15:37.541Z,85
2022-12-27T11:16:37.682Z,80
2022-12-27T11:17:37.121Z,65
2022-12-27T11:18:36.591Z,70
2022-12-27T11:19:37.094Z,85
2022-12-27T11:20:37.348Z,75
2022-12-27T11:21:37.837Z,65
2022-12-27T11:22:37.317Z,70
2022-12-27T11:23:37.796Z,80
2022-12-27T11:24:37.782Z,60
2022-12-27T11:25:37.804Z,60
2022-12-27T11:26:37.747Z,65
2022-12-27T11:27:38.032Z,60
2022-12-27T11:28:37.475Z,60
2022-12-27T11:29:37.469Z,60
2022-12-27T11:30:37.153Z,55
2022-12-27T11:31:38.125Z,60
2022-12-27T11:32:37.708Z,60
2022-12-27T11:33:37.650Z,60
2022-12-27T11:34:37.611Z,50
2022-12-27T11:35:37.855Z,55
2022-12-27T11:36:37.568Z,70
2022-12-27T11:37:37.577Z,65
2022-12-27T11:38:37.577Z,60
2022-12-27T11:39:37.500Z,65
2022-12-27T11:40:37.499Z,80
2022-12-27T11:41:37.454Z,85
2022-12-27T11:42:37.705Z,115
2022-12-27T11:43:37.678Z,120
2022-12-27T11:44:37.709Z,130
2022-12-27T11:45:37.407Z,105
2022-12-27T11:46:37.620Z,105
2022-12-27T11:47:37.287Z,80
2022-12-27T11:48:37.378Z,85
2022-12-27T11:49:37.647Z,85
2022-12-27T11:50:36.810Z,75
2022-12-27T11:51:37.397Z,70
2022-12-27T11:52:37.279Z,90
2022-12-27T11:53:37.067Z,110
2022-12-27T11:54:36.990Z,105
2022-12-27T11:55:36.725Z,115
2022-12-27T11:56:37.218Z,110
2022-12-27T11:57:37.232Z,110
2022-12-27T11:58:37.156Z,100
2022-12-27T11:59:36.937Z,110
2022-12-27T12:00:37.411Z,85
2022-12-27T12:01:37.865Z,85
2022-12-27T12:02:37.825Z,100
2022-12-27T12:03:37.794Z,95
2022-12-27T12:04:37.516Z,90
2022-12-27T12:05:37.379Z,90
2022-12-27T12:06:43.725Z,80
2022-12-27T12:07:37.285Z,85
2022-12-27T12:08:37.113Z,85
2022-12-27T12:09:37.033Z,90
2022-12-27T12:10:36.982Z,90
2022-12-27T12:11:37.186Z,85
2022-12-27T12:12:37.183Z,75
2022-12-27T12:13:37.186Z,80
2022-12-27T12:14:36.888Z,95
2022-12-27T12:15:36.869Z,95
2022-12-27T12:16:36.900Z,100
2022-12-27T12:17:43.865Z,100
2022-12-27T12:18:37.220Z,95
2022-12-27T12:19:36.871Z,95
2022-12-27T12:20:36.784Z,95
2022-12-27T12:21:37.210Z,100
2022-12-27T12:22:36.271Z,80
2022-12-27T12:23:36.476Z,95
2022-12-27T12:24:36.467Z,90
2022-12-27T12:25:36.704Z,105
2022-12-27T12:26:36.431Z,115
2022-12-27T12:27:37.168Z,100
2022-12-27T12:29:07.481Z,110
2022-12-27T12:29:36.118Z,105
2022-12-27T12:30:37.531Z,100
2022-12-27T12:31:37.125Z,90
2022-12-27T12:32:36.821Z,90
2022-12-27T12:33:36.824Z,85
2022-12-27T12:34:36.571Z,85
2022-12-27T12:35:36.870Z,85
2022-12-27T12:36:36.493Z,95
2022-12-27T12:37:36.796Z,90
2022-12-27T12:38:36.718Z,90
2022-12-27T12:39:36.705Z,90
2022-12-27T12:40:36.202Z,95
2022-12-27T12:41:36.671Z,95
2022-12-27T12:42:36.392Z,100
2022-12-27T12:43:36.656Z,95
2022-12-27T12:44:44.154Z,85
2022-12-27T12:45:36.600Z,85
2022-12-27T12:46:36.419Z,90
2022-12-27T12:47:36.567Z,90
2022-12-27T12:48:36.299Z,100
2022-12-27T12:49:36.042Z,100
2022-12-27T12:50:36.527Z,85
2022-12-27T12:51:36.575Z,75
2022-12-27T12:52:36.241Z,75
2022-12-27T12:53:36.544Z,70
2022-12-27T12:54:36.197Z,65
2022-12-27T12:55:43.351Z,70
2022-12-27T12:56:36.428Z,70
2022-12-27T12:57:36.381Z,70
2022-12-27T12:58:36.144Z,65
2022-12-27T12:59:35.851Z,65
2022-12-27T13:00:36.111Z,70
2022-12-27T13:01:36.815Z,75
2022-12-27T13:02:37.127Z,85
2022-12-27T13:03:36.353Z,80
2022-12-27T13:04:36.029Z,80
2022-12-27T13:05:35.794Z,80
2022-12-27T13:06:36.001Z,75
2022-12-27T13:07:44.127Z,70
2022-12-27T13:08:35.941Z,65
2022-12-27T13:09:36.258Z,65
2022-12-27T13:10:36.216Z,75
2022-12-27T13:11:35.387Z,80
2022-12-27T13:12:35.961Z,85
2022-12-27T13:13:35.886Z,80
2022-12-27T13:14:36.141Z,75
2022-12-27T13:15:36.097Z,75
2022-12-27T13:16:36.220Z,80
2022-12-27T13:17:36.032Z,80
2022-12-27T13:18:39.778Z,80
2022-12-27T13:19:35.739Z,80
2022-12-27T13:20:35.998Z,70
2022-12-27T13:21:35.716Z,65
2022-12-27T13:22:35.694Z,65
2022-12-27T13:23:36.077Z,65
2022-12-27T13:24:39.783Z,75
2022-12-27T13:25:35.949Z,65
2022-12-27T13:26:35.375Z,70
2022-12-27T13:27:35.403Z,65
2022-12-27T13:28:35.092Z,65
2022-12-27T13:29:35.822Z,65
2022-12-27T13:30:35.909Z,60
2022-12-27T13:31:35.566Z,65
2022-12-27T13:32:35.034Z,65
2022-12-27T13:33:35.824Z,60
2022-12-27T13:34:35.752Z,60
2022-12-27T13:35:35.718Z,65
2022-12-27T13:36:35.460Z,55
2022-12-27T13:37:35.468Z,55
2022-12-27T13:38:35.448Z,65
2022-12-27T13:39:35.221Z,65
2022-12-27T13:40:35.409Z,60
2022-12-27T13:41:39.548Z,55
2022-12-27T13:42:35.360Z,60
2022-12-27T13:43:35.316Z,60
2022-12-27T13:44:35.322Z,55
2022-12-27T13:45:34.791Z,55
2022-12-27T13:46:45.001Z,55
2022-12-27T13:47:35.052Z,50
2022-12-27T13:48:35.238Z,50
2022-12-27T13:49:35.522Z,55
2022-12-27T13:50:34.960Z,60
2022-12-27T13:51:35.222Z,55
2022-12-27T13:52:35.479Z,60
2022-12-27T13:53:34.406Z,55
2022-12-27T13:54:35.184Z,60
2022-12-27T13:55:35.186Z,55
2022-12-27T13:57:02.704Z,60
2022-12-27T13:57:35.101Z,60
2022-12-27T13:58:34.811Z,50
2022-12-27T13:59:35.058Z,55
2022-12-27T14:00:34.784Z,60
2022-12-27T14:01:35.684Z,65
2022-12-27T14:02:36.644Z,55
2022-12-27T14:03:35.301Z,60
2022-12-27T14:04:35.212Z,55
2022-12-27T14:05:34.668Z,55
2022-12-27T14:06:34.946Z,50
2022-12-27T14:07:34.916Z,50
2022-12-27T14:08:35.185Z,50
2022-12-27T14:09:34.625Z,55
2022-12-27T14:10:35.108Z,50
2022-12-27T14:11:35.222Z,50
2022-12-27T14:12:34.837Z,50
2022-12-27T14:13:34.311Z,50
2022-12-27T14:14:34.797Z,50
2022-12-27T14:15:34.746Z,50
2022-12-27T14:16:34.785Z,45
2022-12-27T14:17:34.726Z,45
2022-12-27T14:18:34.983Z,45
2022-12-27T14:19:34.984Z,40
2022-12-27T14:20:34.926Z,40
2022-12-27T14:21:34.170Z,40
2022-12-27T14:22:35.047Z,40
2022-12-27T14:23:34.663Z,35
2022-12-27T14:24:34.863Z,35
2022-12-27T14:25:34.827Z,35
2022-12-27T14:26:34.620Z,35
2022-12-27T14:27:34.895Z,35
2022-12-27T14:28:34.908Z,35
2022-12-27T14:29:34.524Z,30
2022-12-27T14:30:34.239Z,30
2022-12-27T14:31:35.118Z,30
2022-12-27T14:32:34.788Z,30
2022-12-27T14:33:34.462Z,30
2022-12-27T14:34:34.208Z,30
2022-12-27T14:35:34.146Z,30
2022-12-27T14:36:34.382Z,25
2022-12-27T14:37:34.149Z,25
2022-12-27T14:38:34.437Z,25
2022-12-27T14:39:34.611Z,25
2022-12-27T14:40:41.987Z,25
2022-12-27T14:41:33.837Z,25
2022-12-27T14:42:34.535Z,25
2022-12-27T14:43:34.591Z,25
2022-12-27T14:44:34.507Z,25
2022-12-27T14:45:34.637Z,30
2022-12-27T14:46:34.401Z,25
2022-12-27T14:47:33.955Z,25
2022-12-27T14:48:33.908Z,25